Terminal Aerodrome Forecast
Issued by NWS

Current Version | Previous Version | Text Only | Print | Product List | Glossary On
Versions: 1 2 3 4 5 6 7 8 9 10 11 12
000
FTUS45 KVEF 212300
TAFBIH
TAF
KBIH 212327Z 2200/2224 26004KT P6SM SCT200
     FM220400 35005KT P6SM FEW080 BKN140
     FM222200 34012KT P6SM SCT120
      TEMPO 2222/2224 34014G22KT=

USA.gov is the U.S. government's official web portal to all federal, state and local government web resources and services.